NCAR-RAP Real-Time Weather Data

Output produced by METARs form (08 May 2021  01:45 UTC)
found at http://weather.rap.ucar.edu/surface/
 
KCON 080051Z AUTO 12004KT 10SM CLR 09/M02 A2994 RMK AO2 SLP138 T00891017
KCON 072351Z AUTO 11004KT 10SM CLR 11/M02 A2993 RMK AO2 SLP137 T01111022 10172 20111 51007
KCON 072251Z AUTO 13007KT 10SM CLR 13/M02 A2993 RMK AO2 SLP138 T01281017
KCON 072151Z AUTO 11009KT 10SM CLR 14/M01 A2992 RMK AO2 SLP135 T01441011
KCON 072052Z AUTO 11009KT 10SM CLR 16/M01 A2991 RMK AO2 SLP130 T01561006 58007
KCON 071951Z AUTO 13009G16KT 10SM SCT085 16/00 A2992 RMK AO2 SLP134 T01560000
KCON 071851Z AUTO 17014KT 10SM BKN070 17/01 A2993 RMK AO2 SLP135 T01720006
KCON 071751Z AUTO 13009G18KT 10SM BKN075 16/M01 A2993 RMK AO2 SLP137 T01561011 10167 20072 58015
KCON 071651Z AUTO 11008KT 070V150 10SM OVC070 15/M02 A2995 RMK AO2 SLP143 T01501022
KCON 071551Z AUTO 19009G15KT 10SM FEW070 16/M02 A2996 RMK AO2 SLP148 T01561022
KCON 071451Z AUTO VRB03KT 10SM CLR 15/M02 A2998 RMK AO2 SLP153 T01501022 58006
KCON 071351Z AUTO VRB04KT 10SM CLR 13/M01 A2999 RMK AO2 SLP155 T01331011
KCON 071251Z AUTO 26003KT 10SM CLR 11/01 A3000 RMK AO2 SLP159 T01060006
KCON 071151Z AUTO 00000KT 10SM CLR 07/02 A3000 RMK AO2 SLP159 7//// T00720017 10072 20011 50008 $
KCON 071051Z AUTO 00000KT 10SM CLR 04/01 A3000 RMK AO2 SLP161 T00390011
KCON 070951Z AUTO 00000KT 10SM CLR 02/00 A2999 RMK AO2 SLP156 T00170000